sensor_id;sensor_type;location;lat;lon;timestamp;P1;durP1;ratioP1;P2;durP2;ratioP2
81619;SDS011;71028;53.410;6.710;2023-10-09T00:00:11;5.53;;;2.90;;
81619;SDS011;71028;53.410;6.710;2023-10-09T00:02:55;3.92;;;2.35;;
81619;SDS011;71028;53.410;6.710;2023-10-09T00:05:25;5.30;;;2.42;;
81619;SDS011;71028;53.410;6.710;2023-10-09T00:08:03;5.72;;;2.33;;
81619;SDS011;71028;53.410;6.710;2023-10-09T00:10:30;4.22;;;2.42;;
81619;SDS011;71028;53.410;6.710;2023-10-09T00:13:10;6.03;;;2.75;;
81619;SDS011;71028;53.410;6.710;2023-10-09T00:15:36;6.22;;;2.60;;
81619;SDS011;71028;53.410;6.710;2023-10-09T00:18:03;5.40;;;2.70;;
81619;SDS011;71028;53.410;6.710;2023-10-09T00:20:37;8.48;;;3.35;;
81619;SDS011;71028;53.410;6.710;2023-10-09T00:23:11;3.72;;;2.67;;
81619;SDS011;71028;53.410;6.710;2023-10-09T00:25:50;6.35;;;2.92;;
81619;SDS011;71028;53.410;6.710;2023-10-09T00:28:33;5.88;;;2.90;;
81619;SDS011;71028;53.410;6.710;2023-10-09T00:30:59;4.10;;;2.53;;
81619;SDS011;71028;53.410;6.710;2023-10-09T00:33:31;5.18;;;2.13;;
81619;SDS011;71028;53.410;6.710;2023-10-09T00:36:01;5.40;;;2.92;;
81619;SDS011;71028;53.410;6.710;2023-10-09T00:38:34;5.55;;;2.70;;
81619;SDS011;71028;53.410;6.710;2023-10-09T00:41:00;5.80;;;2.90;;
81619;SDS011;71028;53.410;6.710;2023-10-09T00:43:33;5.07;;;2.90;;
81619;SDS011;71028;53.410;6.710;2023-10-09T00:46:01;6.90;;;2.95;;
81619;SDS011;71028;53.410;6.710;2023-10-09T00:48:28;8.35;;;3.10;;
81619;SDS011;71028;53.410;6.710;2023-10-09T00:51:02;5.60;;;3.03;;
81619;SDS011;71028;53.410;6.710;2023-10-09T00:53:37;8.25;;;3.63;;
81619;SDS011;71028;53.410;6.710;2023-10-09T00:56:04;5.40;;;3.00;;
81619;SDS011;71028;53.410;6.710;2023-10-09T00:58:44;5.18;;;3.10;;
81619;SDS011;71028;53.410;6.710;2023-10-09T01:01:11;8.48;;;3.65;;
81619;SDS011;71028;53.410;6.710;2023-10-09T01:03:41;6.78;;;3.13;;
81619;SDS011;71028;53.410;6.710;2023-10-09T01:06:09;6.45;;;3.08;;
81619;SDS011;71028;53.410;6.710;2023-10-09T01:08:39;8.15;;;3.55;;
81619;SDS011;71028;53.410;6.710;2023-10-09T01:11:05;8.68;;;3.33;;
81619;SDS011;71028;53.410;6.710;2023-10-09T01:13:35;6.85;;;3.90;;
81619;SDS011;71028;53.410;6.710;2023-10-09T01:16:06;6.38;;;3.50;;
81619;SDS011;71028;53.410;6.710;2023-10-09T01:18:40;8.40;;;4.20;;
81619;SDS011;71028;53.410;6.710;2023-10-09T01:21:06;6.57;;;3.80;;
81619;SDS011;71028;53.410;6.710;2023-10-09T01:23:32;7.18;;;3.80;;
81619;SDS011;71028;53.410;6.710;2023-10-09T01:25:59;9.43;;;3.97;;
81619;SDS011;71028;53.410;6.710;2023-10-09T01:28:25;8.68;;;3.92;;
81619;SDS011;71028;53.410;6.710;2023-10-09T01:30:53;9.90;;;3.80;;
81619;SDS011;71028;53.410;6.710;2023-10-09T01:33:20;8.48;;;4.50;;
81619;SDS011;71028;53.410;6.710;2023-10-09T01:35:51;9.02;;;4.22;;
81619;SDS011;71028;53.410;6.710;2023-10-09T01:38:23;8.20;;;3.83;;
81619;SDS011;71028;53.410;6.710;2023-10-09T01:41:05;9.07;;;3.85;;
81619;SDS011;71028;53.410;6.710;2023-10-09T01:43:34;10.50;;;4.93;;
81619;SDS011;71028;53.410;6.710;2023-10-09T01:46:00;9.77;;;4.55;;
81619;SDS011;71028;53.410;6.710;2023-10-09T01:48:26;10.35;;;4.90;;
81619;SDS011;71028;53.410;6.710;2023-10-09T01:50:52;8.25;;;4.03;;
81619;SDS011;71028;53.410;6.710;2023-10-09T01:53:19;11.32;;;4.95;;
81619;SDS011;71028;53.410;6.710;2023-10-09T01:55:48;12.10;;;6.22;;
81619;SDS011;71028;53.410;6.710;2023-10-09T01:58:14;13.20;;;5.78;;
81619;SDS011;71028;53.410;6.710;2023-10-09T02:00:47;17.00;;;5.60;;
81619;SDS011;71028;53.410;6.710;2023-10-09T02:03:20;14.63;;;7.18;;
81619;SDS011;71028;53.410;6.710;2023-10-09T02:05:51;17.98;;;6.60;;
81619;SDS011;71028;53.410;6.710;2023-10-09T02:08:29;21.85;;;7.45;;
81619;SDS011;71028;53.410;6.710;2023-10-09T02:11:00;20.25;;;7.18;;
81619;SDS011;71028;53.410;6.710;2023-10-09T02:13:27;21.63;;;7.70;;
81619;SDS011;71028;53.410;6.710;2023-10-09T02:15:59;18.08;;;7.28;;
81619;SDS011;71028;53.410;6.710;2023-10-09T02:18:46;19.77;;;7.82;;
81619;SDS011;71028;53.410;6.710;2023-10-09T02:21:17;22.17;;;8.40;;
81619;SDS011;71028;53.410;6.710;2023-10-09T02:23:57;22.40;;;8.52;;
81619;SDS011;71028;53.410;6.710;2023-10-09T02:26:28;19.15;;;8.45;;
81619;SDS011;71028;53.410;6.710;2023-10-09T02:29:13;23.95;;;9.25;;
81619;SDS011;71028;53.410;6.710;2023-10-09T02:31:39;22.83;;;8.30;;
81619;SDS011;71028;53.410;6.710;2023-10-09T02:34:06;25.65;;;9.15;;
81619;SDS011;71028;53.410;6.710;2023-10-09T02:36:41;23.75;;;9.25;;
81619;SDS011;71028;53.410;6.710;2023-10-09T02:39:07;27.92;;;10.05;;
81619;SDS011;71028;53.410;6.710;2023-10-09T02:41:48;22.08;;;8.73;;
81619;SDS011;71028;53.410;6.710;2023-10-09T02:44:15;21.73;;;9.57;;
81619;SDS011;71028;53.410;6.710;2023-10-09T02:46:42;25.42;;;10.07;;
81619;SDS011;71028;53.410;6.710;2023-10-09T02:49:09;20.20;;;9.65;;
81619;SDS011;71028;53.410;6.710;2023-10-09T02:51:40;21.13;;;9.15;;
81619;SDS011;71028;53.410;6.710;2023-10-09T02:54:07;22.35;;;9.57;;
81619;SDS011;71028;53.410;6.710;2023-10-09T02:56:49;19.17;;;8.70;;
81619;SDS011;71028;53.410;6.710;2023-10-09T02:59:31;18.85;;;9.35;;
81619;SDS011;71028;53.410;6.710;2023-10-09T03:01:57;25.77;;;10.07;;
81619;SDS011;71028;53.410;6.710;2023-10-09T03:04:25;21.83;;;9.45;;
81619;SDS011;71028;53.410;6.710;2023-10-09T03:06:56;27.33;;;10.63;;
81619;SDS011;71028;53.410;6.710;2023-10-09T03:09:22;25.40;;;9.93;;
81619;SDS011;71028;53.410;6.710;2023-10-09T03:11:53;25.30;;;10.18;;
81619;SDS011;71028;53.410;6.710;2023-10-09T03:14:19;25.00;;;10.30;;
81619;SDS011;71028;53.410;6.710;2023-10-09T03:16:46;23.27;;;9.68;;
81619;SDS011;71028;53.410;6.710;2023-10-09T03:19:15;26.45;;;10.52;;
81619;SDS011;71028;53.410;6.710;2023-10-09T03:21:42;25.35;;;12.38;;
81619;SDS011;71028;53.410;6.710;2023-10-09T03:24:08;29.55;;;12.57;;
81619;SDS011;71028;53.410;6.710;2023-10-09T03:26:34;26.75;;;11.63;;
81619;SDS011;71028;53.410;6.710;2023-10-09T03:29:00;31.75;;;12.68;;
81619;SDS011;71028;53.410;6.710;2023-10-09T03:31:29;28.30;;;11.73;;
81619;SDS011;71028;53.410;6.710;2023-10-09T03:33:55;32.13;;;13.50;;
81619;SDS011;71028;53.410;6.710;2023-10-09T03:36:22;32.22;;;14.05;;
81619;SDS011;71028;53.410;6.710;2023-10-09T03:38:51;31.25;;;12.73;;
81619;SDS011;71028;53.410;6.710;2023-10-09T03:41:20;28.48;;;13.15;;
81619;SDS011;71028;53.410;6.710;2023-10-09T03:43:46;31.65;;;14.20;;
81619;SDS011;71028;53.410;6.710;2023-10-09T03:46:13;31.25;;;14.00;;
81619;SDS011;71028;53.410;6.710;2023-10-09T03:48:46;32.30;;;12.65;;
81619;SDS011;71028;53.410;6.710;2023-10-09T03:51:12;33.00;;;13.23;;
81619;SDS011;71028;53.410;6.710;2023-10-09T03:53:46;32.15;;;14.13;;
81619;SDS011;71028;53.410;6.710;2023-10-09T03:56:12;35.67;;;15.02;;
81619;SDS011;71028;53.410;6.710;2023-10-09T03:58:40;32.42;;;15.20;;
81619;SDS011;71028;53.410;6.710;2023-10-09T04:01:10;29.95;;;14.73;;
81619;SDS011;71028;53.410;6.710;2023-10-09T04:03:43;34.38;;;15.00;;
81619;SDS011;71028;53.410;6.710;2023-10-09T04:06:09;31.75;;;14.23;;
81619;SDS011;71028;53.410;6.710;2023-10-09T04:08:36;31.98;;;14.35;;
81619;SDS011;71028;53.410;6.710;2023-10-09T04:11:05;40.75;;;14.73;;
81619;SDS011;71028;53.410;6.710;2023-10-09T04:13:41;37.33;;;15.23;;
81619;SDS011;71028;53.410;6.710;2023-10-09T04:16:07;31.23;;;14.48;;
81619;SDS011;71028;53.410;6.710;2023-10-09T04:18:45;36.03;;;15.50;;
81619;SDS011;71028;53.410;6.710;2023-10-09T04:21:12;33.58;;;14.90;;
81619;SDS011;71028;53.410;6.710;2023-10-09T04:23:43;33.63;;;15.25;;
81619;SDS011;71028;53.410;6.710;2023-10-09T04:26:33;35.88;;;15.55;;
81619;SDS011;71028;53.410;6.710;2023-10-09T04:29:00;33.40;;;14.73;;
81619;SDS011;71028;53.410;6.710;2023-10-09T04:31:27;34.13;;;16.42;;
81619;SDS011;71028;53.410;6.710;2023-10-09T04:33:58;33.22;;;14.52;;
81619;SDS011;71028;53.410;6.710;2023-10-09T04:36:53;32.53;;;14.35;;
81619;SDS011;71028;53.410;6.710;2023-10-09T04:39:22;35.15;;;14.43;;
81619;SDS011;71028;53.410;6.710;2023-10-09T04:41:54;33.72;;;14.70;;
81619;SDS011;71028;53.410;6.710;2023-10-09T04:44:39;36.10;;;15.48;;
81619;SDS011;71028;53.410;6.710;2023-10-09T04:47:16;32.28;;;14.13;;
81619;SDS011;71028;53.410;6.710;2023-10-09T04:49:43;37.92;;;15.98;;
81619;SDS011;71028;53.410;6.710;2023-10-09T04:52:21;29.98;;;14.88;;
81619;SDS011;71028;53.410;6.710;2023-10-09T04:54:50;36.45;;;15.77;;
81619;SDS011;71028;53.410;6.710;2023-10-09T04:57:31;34.75;;;13.85;;
81619;SDS011;71028;53.410;6.710;2023-10-09T05:00:06;29.33;;;14.13;;
81619;SDS011;71028;53.410;6.710;2023-10-09T05:02:47;34.10;;;15.57;;
81619;SDS011;71028;53.410;6.710;2023-10-09T05:05:20;36.80;;;14.50;;
81619;SDS011;71028;53.410;6.710;2023-10-09T05:08:05;28.05;;;13.90;;
81619;SDS011;71028;53.410;6.710;2023-10-09T05:13:28;26.13;;;12.73;;
81619;SDS011;71028;53.410;6.710;2023-10-09T05:16:03;26.10;;;12.27;;
81619;SDS011;71028;53.410;6.710;2023-10-09T05:18:29;29.85;;;14.20;;
81619;SDS011;71028;53.410;6.710;2023-10-09T05:21:01;25.13;;;12.55;;
81619;SDS011;71028;53.410;6.710;2023-10-09T05:23:46;28.00;;;13.23;;
81619;SDS011;71028;53.410;6.710;2023-10-09T05:26:32;24.25;;;11.48;;
81619;SDS011;71028;53.410;6.710;2023-10-09T05:29:10;25.00;;;11.43;;
81619;SDS011;71028;53.410;6.710;2023-10-09T05:31:49;22.27;;;11.48;;
81619;SDS011;71028;53.410;6.710;2023-10-09T05:34:21;27.23;;;10.27;;
81619;SDS011;71028;53.410;6.710;2023-10-09T05:36:48;18.45;;;9.13;;
81619;SDS011;71028;53.410;6.710;2023-10-09T05:39:14;23.80;;;8.55;;
81619;SDS011;71028;53.410;6.710;2023-10-09T05:41:47;19.75;;;7.80;;
81619;SDS011;71028;53.410;6.710;2023-10-09T05:44:24;15.82;;;6.88;;
81619;SDS011;71028;53.410;6.710;2023-10-09T05:47:03;16.38;;;7.20;;
81619;SDS011;71028;53.410;6.710;2023-10-09T05:49:56;17.75;;;7.35;;
81619;SDS011;71028;53.410;6.710;2023-10-09T05:52:29;19.10;;;8.05;;
81619;SDS011;71028;53.410;6.710;2023-10-09T05:55:18;15.75;;;6.45;;
81619;SDS011;71028;53.410;6.710;2023-10-09T05:57:44;19.90;;;7.60;;
81619;SDS011;71028;53.410;6.710;2023-10-09T06:00:30;18.63;;;7.35;;
81619;SDS011;71028;53.410;6.710;2023-10-09T06:03:15;19.08;;;7.57;;
81619;SDS011;71028;53.410;6.710;2023-10-09T06:05:46;16.58;;;6.93;;
81619;SDS011;71028;53.410;6.710;2023-10-09T06:08:21;14.10;;;6.40;;
81619;SDS011;71028;53.410;6.710;2023-10-09T06:11:06;16.67;;;7.28;;
81619;SDS011;71028;53.410;6.710;2023-10-09T06:13:51;18.58;;;7.57;;
81619;SDS011;71028;53.410;6.710;2023-10-09T06:16:28;17.45;;;6.88;;
81619;SDS011;71028;53.410;6.710;2023-10-09T06:19:03;17.65;;;7.20;;
81619;SDS011;71028;53.410;6.710;2023-10-09T06:21:44;20.38;;;7.70;;
81619;SDS011;71028;53.410;6.710;2023-10-09T06:24:29;17.65;;;6.45;;
81619;SDS011;71028;53.410;6.710;2023-10-09T06:27:06;14.98;;;6.65;;
81619;SDS011;71028;53.410;6.710;2023-10-09T06:29:32;19.02;;;7.10;;
81619;SDS011;71028;53.410;6.710;2023-10-09T06:32:16;19.73;;;6.63;;
81619;SDS011;71028;53.410;6.710;2023-10-09T06:34:48;15.32;;;6.70;;
81619;SDS011;71028;53.410;6.710;2023-10-09T06:37:20;19.52;;;6.72;;
81619;SDS011;71028;53.410;6.710;2023-10-09T06:42:34;21.02;;;6.43;;
81619;SDS011;71028;53.410;6.710;2023-10-09T06:45:04;15.73;;;6.30;;
81619;SDS011;71028;53.410;6.710;2023-10-09T06:47:42;13.82;;;5.85;;
81619;SDS011;71028;53.410;6.710;2023-10-09T06:50:20;19.05;;;7.10;;
81619;SDS011;71028;53.410;6.710;2023-10-09T06:52:46;17.25;;;6.88;;
81619;SDS011;71028;53.410;6.710;2023-10-09T06:55:37;15.18;;;5.60;;
81619;SDS011;71028;53.410;6.710;2023-10-09T06:58:30;17.83;;;7.07;;
81619;SDS011;71028;53.410;6.710;2023-10-09T07:01:06;12.65;;;5.63;;
81619;SDS011;71028;53.410;6.710;2023-10-09T07:03:56;16.27;;;6.93;;
81619;SDS011;71028;53.410;6.710;2023-10-09T07:06:35;9.90;;;5.35;;
81619;SDS011;71028;53.410;6.710;2023-10-09T07:09:01;11.75;;;6.43;;
81619;SDS011;71028;53.410;6.710;2023-10-09T07:11:40;12.80;;;6.47;;
81619;SDS011;71028;53.410;6.710;2023-10-09T07:14:14;16.63;;;6.15;;
81619;SDS011;71028;53.410;6.710;2023-10-09T07:19:30;12.02;;;5.85;;
81619;SDS011;71028;53.410;6.710;2023-10-09T07:21:59;17.67;;;6.63;;
81619;SDS011;71028;53.410;6.710;2023-10-09T07:24:28;15.90;;;6.35;;
81619;SDS011;71028;53.410;6.710;2023-10-09T07:27:08;13.85;;;5.70;;
81619;SDS011;71028;53.410;6.710;2023-10-09T07:29:35;17.27;;;5.60;;
81619;SDS011;71028;53.410;6.710;2023-10-09T07:32:13;15.25;;;6.70;;
81619;SDS011;71028;53.410;6.710;2023-10-09T07:34:49;19.63;;;5.47;;
81619;SDS011;71028;53.410;6.710;2023-10-09T07:37:25;15.27;;;5.85;;
81619;SDS011;71028;53.410;6.710;2023-10-09T07:40:01;17.50;;;5.97;;
81619;SDS011;71028;53.410;6.710;2023-10-09T07:42:32;14.57;;;5.78;;
81619;SDS011;71028;53.410;6.710;2023-10-09T07:45:07;15.40;;;5.90;;
81619;SDS011;71028;53.410;6.710;2023-10-09T07:47:46;15.40;;;6.40;;
81619;SDS011;71028;53.410;6.710;2023-10-09T07:50:36;11.95;;;5.68;;
81619;SDS011;71028;53.410;6.710;2023-10-09T07:53:09;9.93;;;5.25;;
81619;SDS011;71028;53.410;6.710;2023-10-09T07:55:51;14.55;;;5.80;;
81619;SDS011;71028;53.410;6.710;2023-10-09T07:58:31;13.93;;;6.13;;
81619;SDS011;71028;53.410;6.710;2023-10-09T08:01:10;14.23;;;5.70;;
81619;SDS011;71028;53.410;6.710;2023-10-09T08:04:09;11.18;;;5.47;;
81619;SDS011;71028;53.410;6.710;2023-10-09T08:06:41;17.75;;;6.38;;
81619;SDS011;71028;53.410;6.710;2023-10-09T08:09:10;17.27;;;5.85;;
81619;SDS011;71028;53.410;6.710;2023-10-09T08:11:45;15.55;;;6.35;;
81619;SDS011;71028;53.410;6.710;2023-10-09T08:14:11;14.05;;;6.43;;
81619;SDS011;71028;53.410;6.710;2023-10-09T08:16:49;14.10;;;5.57;;
81619;SDS011;71028;53.410;6.710;2023-10-09T08:22:17;13.27;;;5.93;;
81619;SDS011;71028;53.410;6.710;2023-10-09T08:24:48;20.70;;;6.03;;
81619;SDS011;71028;53.410;6.710;2023-10-09T08:27:21;17.02;;;5.85;;
81619;SDS011;71028;53.410;6.710;2023-10-09T08:29:56;12.50;;;5.70;;
81619;SDS011;71028;53.410;6.710;2023-10-09T08:32:41;15.20;;;5.45;;
81619;SDS011;71028;53.410;6.710;2023-10-09T08:35:11;20.90;;;6.10;;
81619;SDS011;71028;53.410;6.710;2023-10-09T08:37:56;15.80;;;5.57;;
81619;SDS011;71028;53.410;6.710;2023-10-09T08:40:33;19.33;;;6.50;;
81619;SDS011;71028;53.410;6.710;2023-10-09T08:43:07;19.52;;;5.63;;
81619;SDS011;71028;53.410;6.710;2023-10-09T08:45:35;19.20;;;5.95;;
81619;SDS011;71028;53.410;6.710;2023-10-09T08:48:01;14.65;;;6.05;;
81619;SDS011;71028;53.410;6.710;2023-10-09T08:50:30;21.20;;;6.68;;
81619;SDS011;71028;53.410;6.710;2023-10-09T08:52:56;15.93;;;5.43;;
81619;SDS011;71028;53.410;6.710;2023-10-09T08:55:22;17.90;;;6.63;;
81619;SDS011;71028;53.410;6.710;2023-10-09T08:57:48;16.40;;;6.90;;
81619;SDS011;71028;53.410;6.710;2023-10-09T09:00:18;13.25;;;5.50;;
81619;SDS011;71028;53.410;6.710;2023-10-09T09:02:50;21.25;;;6.78;;
81619;SDS011;71028;53.410;6.710;2023-10-09T09:05:19;16.85;;;6.80;;
81619;SDS011;71028;53.410;6.710;2023-10-09T09:07:46;15.80;;;5.90;;
81619;SDS011;71028;53.410;6.710;2023-10-09T09:10:13;23.88;;;6.90;;
81619;SDS011;71028;53.410;6.710;2023-10-09T09:12:45;13.70;;;6.15;;
81619;SDS011;71028;53.410;6.710;2023-10-09T09:15:15;16.42;;;7.03;;
81619;SDS011;71028;53.410;6.710;2023-10-09T09:17:45;20.60;;;5.97;;
81619;SDS011;71028;53.410;6.710;2023-10-09T09:20:21;22.00;;;8.80;;
81619;SDS011;71028;53.410;6.710;2023-10-09T09:22:58;12.02;;;5.40;;
81619;SDS011;71028;53.410;6.710;2023-10-09T09:25:27;16.88;;;6.28;;
81619;SDS011;71028;53.410;6.710;2023-10-09T09:28:04;14.23;;;5.50;;
81619;SDS011;71028;53.410;6.710;2023-10-09T09:30:37;16.10;;;5.60;;
81619;SDS011;71028;53.410;6.710;2023-10-09T09:33:18;17.92;;;6.07;;
81619;SDS011;71028;53.410;6.710;2023-10-09T09:36:03;16.77;;;5.43;;
81619;SDS011;71028;53.410;6.710;2023-10-09T09:38:30;17.60;;;5.55;;
81619;SDS011;71028;53.410;6.710;2023-10-09T09:41:18;15.38;;;5.35;;
81619;SDS011;71028;53.410;6.710;2023-10-09T09:43:54;13.00;;;5.15;;
81619;SDS011;71028;53.410;6.710;2023-10-09T09:46:30;17.15;;;5.55;;
81619;SDS011;71028;53.410;6.710;2023-10-09T09:49:00;17.30;;;5.68;;
81619;SDS011;71028;53.410;6.710;2023-10-09T09:51:29;15.23;;;5.15;;
81619;SDS011;71028;53.410;6.710;2023-10-09T09:53:55;13.85;;;5.45;;
81619;SDS011;71028;53.410;6.710;2023-10-09T09:56:24;14.65;;;5.47;;
81619;SDS011;71028;53.410;6.710;2023-10-09T09:58:51;12.38;;;5.20;;
81619;SDS011;71028;53.410;6.710;2023-10-09T10:01:25;17.60;;;5.53;;
81619;SDS011;71028;53.410;6.710;2023-10-09T10:03:59;16.00;;;5.90;;
81619;SDS011;71028;53.410;6.710;2023-10-09T10:06:27;16.67;;;5.85;;
81619;SDS011;71028;53.410;6.710;2023-10-09T10:08:54;12.65;;;5.40;;
81619;SDS011;71028;53.410;6.710;2023-10-09T10:14:05;13.45;;;5.38;;
81619;SDS011;71028;53.410;6.710;2023-10-09T10:16:33;15.85;;;6.45;;
81619;SDS011;71028;53.410;6.710;2023-10-09T10:19:20;15.02;;;4.95;;
81619;SDS011;71028;53.410;6.710;2023-10-09T10:21:47;16.60;;;5.28;;
81619;SDS011;71028;53.410;6.710;2023-10-09T10:27:14;18.15;;;6.28;;
81619;SDS011;71028;53.410;6.710;2023-10-09T10:35:20;16.67;;;4.75;;
81619;SDS011;71028;53.410;6.710;2023-10-09T10:37:57;8.02;;;4.05;;
81619;SDS011;71028;53.410;6.710;2023-10-09T10:40:32;13.80;;;4.57;;
81619;SDS011;71028;53.410;6.710;2023-10-09T10:43:27;13.82;;;4.63;;
81619;SDS011;71028;53.410;6.710;2023-10-09T10:46:04;14.35;;;5.05;;
81619;SDS011;71028;53.410;6.710;2023-10-09T10:48:38;14.45;;;4.60;;
81619;SDS011;71028;53.410;6.710;2023-10-09T10:51:05;13.52;;;5.05;;
81619;SDS011;71028;53.410;6.710;2023-10-09T10:53:31;15.43;;;4.70;;
81619;SDS011;71028;53.410;6.710;2023-10-09T10:56:12;11.07;;;4.50;;
81619;SDS011;71028;53.410;6.710;2023-10-09T10:58:39;12.10;;;3.35;;
81619;SDS011;71028;53.410;6.710;2023-10-09T11:01:23;10.50;;;3.30;;
81619;SDS011;71028;53.410;6.710;2023-10-09T11:03:50;7.88;;;3.13;;
81619;SDS011;71028;53.410;6.710;2023-10-09T11:06:29;8.77;;;3.63;;
81619;SDS011;71028;53.410;6.710;2023-10-09T11:09:01;8.93;;;3.28;;
81619;SDS011;71028;53.410;6.710;2023-10-09T11:11:35;8.13;;;3.05;;
81619;SDS011;71028;53.410;6.710;2023-10-09T11:14:12;10.27;;;3.35;;
81619;SDS011;71028;53.410;6.710;2023-10-09T11:16:48;9.02;;;3.25;;
81619;SDS011;71028;53.410;6.710;2023-10-09T11:19:19;8.43;;;3.83;;
81619;SDS011;71028;53.410;6.710;2023-10-09T11:21:51;12.35;;;3.75;;
81619;SDS011;71028;53.410;6.710;2023-10-09T11:24:44;12.93;;;3.83;;
81619;SDS011;71028;53.410;6.710;2023-10-09T11:27:12;13.38;;;3.63;;
81619;SDS011;71028;53.410;6.710;2023-10-09T11:29:51;13.63;;;3.33;;
81619;SDS011;71028;53.410;6.710;2023-10-09T11:32:18;12.18;;;3.60;;
81619;SDS011;71028;53.410;6.710;2023-10-09T11:34:44;6.85;;;3.35;;
81619;SDS011;71028;53.410;6.710;2023-10-09T11:37:17;7.43;;;3.15;;
81619;SDS011;71028;53.410;6.710;2023-10-09T11:39:59;8.35;;;3.00;;
81619;SDS011;71028;53.410;6.710;2023-10-09T11:42:28;12.55;;;3.92;;
81619;SDS011;71028;53.410;6.710;2023-10-09T11:45:04;13.20;;;3.20;;
81619;SDS011;71028;53.410;6.710;2023-10-09T11:47:48;8.35;;;3.67;;
81619;SDS011;71028;53.410;6.710;2023-10-09T11:53:08;8.73;;;3.47;;
81619;SDS011;71028;53.410;6.710;2023-10-09T11:55:43;10.48;;;3.58;;
81619;SDS011;71028;53.410;6.710;2023-10-09T11:58:13;11.52;;;3.55;;
81619;SDS011;71028;53.410;6.710;2023-10-09T12:00:39;8.10;;;3.15;;
81619;SDS011;71028;53.410;6.710;2023-10-09T12:03:12;8.60;;;3.20;;
81619;SDS011;71028;53.410;6.710;2023-10-09T12:05:40;9.63;;;3.28;;
81619;SDS011;71028;53.410;6.710;2023-10-09T12:08:09;6.95;;;3.28;;
81619;SDS011;71028;53.410;6.710;2023-10-09T12:10:36;8.02;;;3.08;;
81619;SDS011;71028;53.410;6.710;2023-10-09T12:13:06;9.13;;;3.17;;
81619;SDS011;71028;53.410;6.710;2023-10-09T12:15:32;7.18;;;2.83;;
81619;SDS011;71028;53.410;6.710;2023-10-09T12:18:05;10.73;;;3.55;;
81619;SDS011;71028;53.410;6.710;2023-10-09T12:20:39;8.35;;;3.40;;
81619;SDS011;71028;53.410;6.710;2023-10-09T12:23:05;10.25;;;2.72;;
81619;SDS011;71028;53.410;6.710;2023-10-09T12:25:32;14.70;;;4.15;;
81619;SDS011;71028;53.410;6.710;2023-10-09T12:27:59;9.75;;;3.40;;
81619;SDS011;71028;53.410;6.710;2023-10-09T12:30:27;13.32;;;3.38;;
81619;SDS011;71028;53.410;6.710;2023-10-09T12:32:54;8.75;;;3.05;;
81619;SDS011;71028;53.410;6.710;2023-10-09T12:35:20;5.70;;;2.40;;
81619;SDS011;71028;53.410;6.710;2023-10-09T12:37:46;7.97;;;3.10;;
81619;SDS011;71028;53.410;6.710;2023-10-09T12:40:14;7.18;;;2.60;;
81619;SDS011;71028;53.410;6.710;2023-10-09T12:42:49;5.07;;;2.33;;
81619;SDS011;71028;53.410;6.710;2023-10-09T12:45:15;7.55;;;2.78;;
81619;SDS011;71028;53.410;6.710;2023-10-09T12:47:42;7.25;;;2.85;;
81619;SDS011;71028;53.410;6.710;2023-10-09T12:50:08;6.68;;;2.40;;
81619;SDS011;71028;53.410;6.710;2023-10-09T12:52:39;6.47;;;2.10;;
81619;SDS011;71028;53.410;6.710;2023-10-09T12:55:05;6.32;;;2.08;;
81619;SDS011;71028;53.410;6.710;2023-10-09T12:57:35;7.70;;;2.55;;
81619;SDS011;71028;53.410;6.710;2023-10-09T13:00:01;6.50;;;2.58;;
81619;SDS011;71028;53.410;6.710;2023-10-09T13:02:36;6.95;;;3.15;;
81619;SDS011;71028;53.410;6.710;2023-10-09T13:05:02;8.32;;;2.45;;
81619;SDS011;71028;53.410;6.710;2023-10-09T13:07:30;9.93;;;3.05;;
81619;SDS011;71028;53.410;6.710;2023-10-09T13:09:56;9.38;;;2.92;;
81619;SDS011;71028;53.410;6.710;2023-10-09T13:12:34;6.78;;;2.10;;
81619;SDS011;71028;53.410;6.710;2023-10-09T13:15:06;7.55;;;2.35;;
81619;SDS011;71028;53.410;6.710;2023-10-09T13:17:37;3.92;;;1.90;;
81619;SDS011;71028;53.410;6.710;2023-10-09T13:20:04;7.57;;;2.53;;
81619;SDS011;71028;53.410;6.710;2023-10-09T13:22:40;8.60;;;2.67;;
81619;SDS011;71028;53.410;6.710;2023-10-09T13:25:09;5.22;;;2.35;;
81619;SDS011;71028;53.410;6.710;2023-10-09T13:27:45;7.47;;;2.40;;
81619;SDS011;71028;53.410;6.710;2023-10-09T13:30:18;5.55;;;2.20;;
81619;SDS011;71028;53.410;6.710;2023-10-09T13:32:47;9.73;;;2.97;;
81619;SDS011;71028;53.410;6.710;2023-10-09T13:35:15;5.65;;;1.95;;
81619;SDS011;71028;53.410;6.710;2023-10-09T13:37:43;7.05;;;2.33;;
81619;SDS011;71028;53.410;6.710;2023-10-09T13:40:13;6.55;;;2.08;;
81619;SDS011;71028;53.410;6.710;2023-10-09T13:42:51;5.13;;;2.63;;
81619;SDS011;71028;53.410;6.710;2023-10-09T13:45:17;5.35;;;1.67;;
81619;SDS011;71028;53.410;6.710;2023-10-09T13:47:51;5.05;;;1.50;;
81619;SDS011;71028;53.410;6.710;2023-10-09T13:50:19;5.05;;;1.70;;
81619;SDS011;71028;53.410;6.710;2023-10-09T13:52:47;6.38;;;1.40;;
81619;SDS011;71028;53.410;6.710;2023-10-09T13:55:13;5.18;;;1.63;;
81619;SDS011;71028;53.410;6.710;2023-10-09T13:57:42;4.18;;;1.70;;
81619;SDS011;71028;53.410;6.710;2023-10-09T14:00:11;8.68;;;1.80;;
81619;SDS011;71028;53.410;6.710;2023-10-09T14:02:42;8.73;;;1.77;;
81619;SDS011;71028;53.410;6.710;2023-10-09T14:05:08;6.03;;;1.67;;
81619;SDS011;71028;53.410;6.710;2023-10-09T14:07:34;8.43;;;1.55;;
81619;SDS011;71028;53.410;6.710;2023-10-09T14:10:00;7.20;;;1.83;;
81619;SDS011;71028;53.410;6.710;2023-10-09T14:12:42;5.45;;;1.40;;
81619;SDS011;71028;53.410;6.710;2023-10-09T14:15:08;6.25;;;1.60;;
81619;SDS011;71028;53.410;6.710;2023-10-09T14:17:36;6.30;;;1.45;;
81619;SDS011;71028;53.410;6.710;2023-10-09T14:20:07;3.47;;;1.40;;
81619;SDS011;71028;53.410;6.710;2023-10-09T14:22:55;5.78;;;1.50;;
81619;SDS011;71028;53.410;6.710;2023-10-09T14:25:21;5.70;;;2.63;;
81619;SDS011;71028;53.410;6.710;2023-10-09T14:27:48;6.38;;;1.95;;
81619;SDS011;71028;53.410;6.710;2023-10-09T14:30:14;6.50;;;1.25;;
81619;SDS011;71028;53.410;6.710;2023-10-09T14:32:48;3.55;;;0.98;;
81619;SDS011;71028;53.410;6.710;2023-10-09T14:35:20;3.97;;;1.33;;
81619;SDS011;71028;53.410;6.710;2023-10-09T14:37:51;4.72;;;0.95;;
81619;SDS011;71028;53.410;6.710;2023-10-09T14:40:18;2.92;;;1.20;;
81619;SDS011;71028;53.410;6.710;2023-10-09T14:42:55;5.72;;;1.30;;
81619;SDS011;71028;53.410;6.710;2023-10-09T14:45:23;6.63;;;1.08;;
81619;SDS011;71028;53.410;6.710;2023-10-09T14:47:51;5.22;;;1.88;;
81619;SDS011;71028;53.410;6.710;2023-10-09T14:50:18;5.55;;;2.10;;
81619;SDS011;71028;53.410;6.710;2023-10-09T14:52:47;5.22;;;1.23;;
81619;SDS011;71028;53.410;6.710;2023-10-09T14:55:13;5.63;;;1.27;;
81619;SDS011;71028;53.410;6.710;2023-10-09T14:57:45;5.53;;;1.38;;
81619;SDS011;71028;53.410;6.710;2023-10-09T15:00:11;6.00;;;2.22;;
81619;SDS011;71028;53.410;6.710;2023-10-09T15:02:39;2.45;;;1.20;;
81619;SDS011;71028;53.410;6.710;2023-10-09T15:05:05;2.90;;;1.92;;
81619;SDS011;71028;53.410;6.710;2023-10-09T15:07:36;3.42;;;1.42;;
81619;SDS011;71028;53.410;6.710;2023-10-09T15:10:06;4.00;;;1.08;;
81619;SDS011;71028;53.410;6.710;2023-10-09T15:12:34;6.18;;;1.48;;
81619;SDS011;71028;53.410;6.710;2023-10-09T15:15:05;3.88;;;1.20;;
81619;SDS011;71028;53.410;6.710;2023-10-09T15:17:38;4.47;;;1.30;;
81619;SDS011;71028;53.410;6.710;2023-10-09T15:20:08;6.03;;;1.48;;
81619;SDS011;71028;53.410;6.710;2023-10-09T15:22:38;2.30;;;0.90;;
81619;SDS011;71028;53.410;6.710;2023-10-09T15:25:04;1.30;;;1.00;;
81619;SDS011;71028;53.410;6.710;2023-10-09T15:27:31;6.63;;;1.38;;
81619;SDS011;71028;53.410;6.710;2023-10-09T15:29:57;8.65;;;1.50;;
81619;SDS011;71028;53.410;6.710;2023-10-09T15:32:23;3.55;;;1.25;;